createdAt,value
2023-04-29T00:01:35.069Z,5.20
2023-04-29T00:04:25.094Z,4.40
2023-04-29T00:07:16.447Z,5.13
2023-04-29T00:10:09.204Z,4.33
2023-04-29T00:12:58.714Z,5.27
2023-04-29T00:15:48.364Z,5.23
2023-04-29T00:18:38.332Z,5.00
2023-04-29T00:21:28.492Z,5.60
2023-04-29T00:24:18.447Z,6.20
2023-04-29T00:27:09.444Z,5.00
2023-04-29T00:29:59.701Z,5.63
2023-04-29T00:32:50.235Z,5.27
2023-04-29T00:35:40.050Z,4.93
2023-04-29T00:38:29.989Z,5.07
2023-04-29T00:41:20.730Z,6.60
2023-04-29T00:44:12.030Z,7.00
2023-04-29T00:47:01.808Z,7.07
2023-04-29T00:49:51.689Z,7.10
2023-04-29T00:52:41.865Z,6.70
2023-04-29T00:55:33.224Z,6.57
2023-04-29T00:58:23.749Z,6.47
2023-04-29T01:01:15.315Z,6.67
2023-04-29T01:04:07.090Z,6.27
2023-04-29T01:07:06.701Z,6.73
2023-04-29T01:10:05.131Z,7.00
2023-04-29T01:13:03.005Z,6.70
2023-04-29T01:16:02.965Z,6.43
2023-04-29T01:18:59.975Z,6.33
2023-04-29T01:21:50.429Z,7.03
2023-04-29T01:24:41.866Z,6.20
2023-04-29T01:27:34.473Z,6.90
2023-04-29T01:30:33.463Z,7.17
2023-04-29T01:33:31.648Z,6.27
2023-04-29T01:36:31.035Z,6.33
2023-04-29T01:39:29.661Z,6.63
2023-04-29T01:42:27.891Z,7.50
2023-04-29T01:45:19.804Z,6.37
2023-04-29T01:48:10.029Z,6.50
2023-04-29T01:50:59.943Z,6.37
2023-04-29T01:53:49.758Z,6.37
2023-04-29T01:56:39.390Z,6.27
2023-04-29T01:59:31.453Z,6.40
2023-04-29T02:02:24.432Z,6.63
2023-04-29T02:05:13.954Z,5.83
2023-04-29T02:08:04.050Z,5.73
2023-04-29T02:13:30.969Z,6.30
2023-04-29T02:16:22.188Z,6.13
2023-04-29T02:19:11.861Z,6.13
2023-04-29T02:22:01.485Z,5.23
2023-04-29T02:24:51.085Z,6.03
2023-04-29T02:27:40.706Z,5.87
2023-04-29T02:30:30.938Z,6.07
2023-04-29T02:33:22.056Z,6.33
2023-04-29T02:36:11.748Z,6.70
2023-04-29T02:39:01.768Z,6.60
2023-04-29T02:41:51.312Z,6.57
2023-04-29T02:44:41.910Z,6.77
2023-04-29T02:47:31.873Z,6.57
2023-04-29T02:50:23.257Z,6.30
2023-04-29T02:53:13.001Z,6.13
2023-04-29T02:56:02.557Z,5.77
2023-04-29T02:58:52.428Z,7.13
2023-04-29T03:01:41.856Z,6.70
2023-04-29T03:04:31.818Z,6.40
2023-04-29T03:07:23.093Z,6.37
2023-04-29T03:10:13.719Z,6.23
2023-04-29T03:13:03.180Z,6.27
2023-04-29T03:15:52.722Z,6.57
2023-04-29T03:18:42.500Z,6.10
2023-04-29T03:21:31.967Z,5.80
2023-04-29T03:24:23.325Z,6.07
2023-04-29T03:27:12.849Z,5.67
2023-04-29T03:30:02.726Z,5.97
2023-04-29T03:32:52.249Z,5.90
2023-04-29T03:35:41.684Z,5.33
2023-04-29T03:38:31.225Z,5.10
2023-04-29T03:41:23.528Z,4.57
2023-04-29T03:44:12.849Z,4.70
2023-04-29T03:47:02.325Z,4.70
2023-04-29T03:49:52.076Z,4.93
2023-04-29T03:52:41.773Z,4.67
2023-04-29T03:55:31.752Z,5.30
2023-04-29T03:58:24.321Z,4.23
2023-04-29T04:01:13.745Z,4.73
2023-04-29T04:04:03.713Z,4.90
2023-04-29T04:06:53.273Z,4.07
2023-04-29T04:09:43.344Z,4.47
2023-04-29T04:12:33.097Z,4.30
2023-04-29T04:15:24.718Z,4.10
2023-04-29T04:18:14.534Z,4.17
2023-04-29T04:21:08.261Z,4.30
2023-04-29T04:23:57.821Z,4.57
2023-04-29T04:26:47.511Z,4.40
2023-04-29T04:29:36.923Z,5.50
2023-04-29T04:32:28.530Z,5.43
2023-04-29T04:35:18.343Z,4.60
2023-04-29T04:38:08.585Z,5.20
2023-04-29T04:40:58.088Z,4.80
2023-04-29T04:43:48.071Z,4.70
2023-04-29T04:46:37.946Z,5.20
2023-04-29T04:49:29.652Z,4.80
2023-04-29T04:52:26.156Z,5.67
2023-04-29T04:55:16.467Z,5.50
2023-04-29T04:58:06.050Z,5.90
2023-04-29T05:00:56.125Z,5.33
2023-04-29T05:03:46.041Z,6.50
2023-04-29T05:06:37.924Z,6.50
2023-04-29T05:09:27.555Z,6.17
2023-04-29T05:12:17.286Z,6.20
2023-04-29T05:15:08.750Z,6.03
2023-04-29T05:17:58.252Z,6.13
2023-04-29T05:20:47.870Z,6.13
2023-04-29T05:23:38.873Z,5.70
2023-04-29T05:26:28.325Z,6.07
2023-04-29T05:29:18.182Z,5.57
2023-04-29T05:32:08.034Z,5.87
2023-04-29T05:34:57.574Z,5.70
2023-04-29T05:37:47.102Z,5.70
2023-04-29T05:40:38.627Z,5.13
2023-04-29T05:43:28.140Z,5.90
2023-04-29T05:46:18.409Z,5.83
2023-04-29T05:49:08.041Z,5.70
2023-04-29T05:51:57.660Z,5.40
2023-04-29T05:54:47.199Z,5.63
2023-04-29T05:57:38.327Z,5.17
2023-04-29T06:00:28.150Z,5.60
2023-04-29T06:03:18.721Z,5.00
2023-04-29T06:06:08.575Z,5.27
2023-04-29T06:08:58.064Z,5.80
2023-04-29T06:11:49.483Z,5.13
2023-04-29T06:14:40.726Z,5.17
2023-04-29T06:17:30.414Z,5.07
2023-04-29T06:20:20.100Z,5.20
2023-04-29T06:23:09.637Z,5.53
2023-04-29T06:25:59.398Z,4.87
2023-04-29T06:28:49.067Z,5.20
2023-04-29T06:31:40.358Z,5.07
2023-04-29T06:34:30.100Z,4.77
2023-04-29T06:37:19.818Z,4.57
2023-04-29T06:40:10.621Z,4.53
2023-04-29T06:42:59.865Z,4.77
2023-04-29T06:45:49.508Z,4.73
2023-04-29T06:48:40.504Z,4.37
2023-04-29T06:51:30.265Z,4.77
2023-04-29T06:54:20.226Z,4.20
2023-04-29T06:57:09.909Z,4.00
2023-04-29T06:59:59.462Z,3.80
2023-04-29T07:02:49.267Z,3.70
2023-04-29T07:05:42.175Z,3.70
2023-04-29T07:08:35.127Z,4.03
2023-04-29T07:11:25.132Z,3.97
2023-04-29T07:14:14.851Z,4.33
2023-04-29T07:17:04.561Z,4.43
2023-04-29T07:19:54.840Z,3.77
2023-04-29T07:22:46.316Z,3.57
2023-04-29T07:25:37.088Z,3.50
2023-04-29T07:28:27.073Z,3.87
2023-04-29T07:31:16.917Z,3.50
2023-04-29T07:34:06.553Z,4.00
2023-04-29T07:36:56.658Z,3.67
2023-04-29T07:39:48.510Z,3.40
2023-04-29T07:42:38.091Z,3.43
2023-04-29T07:45:27.647Z,3.53
2023-04-29T07:48:17.423Z,3.73
2023-04-29T07:51:07.282Z,3.77
2023-04-29T07:53:56.827Z,4.10
2023-04-29T07:56:47.813Z,4.40
2023-04-29T07:59:37.259Z,10.57
2023-04-29T08:02:27.161Z,4.47
2023-04-29T08:05:17.285Z,4.30
2023-04-29T08:08:07.765Z,3.67
2023-04-29T08:10:57.508Z,4.20
2023-04-29T08:13:48.940Z,4.13
2023-04-29T08:16:42.022Z,4.20
2023-04-29T08:19:31.868Z,4.17
2023-04-29T08:22:23.156Z,4.67
2023-04-29T08:25:13.922Z,4.83
2023-04-29T08:28:03.555Z,4.03
2023-04-29T08:30:54.586Z,4.37
2023-04-29T08:33:44.225Z,4.40
2023-04-29T08:36:34.596Z,5.50
2023-04-29T08:39:24.143Z,4.90
2023-04-29T08:42:14.129Z,7.37
2023-04-29T08:45:04.306Z,4.60
2023-04-29T08:47:58.684Z,4.80
2023-04-29T08:50:48.683Z,16.93
2023-04-29T08:53:38.410Z,10.53
2023-04-29T08:56:29.345Z,6.13
2023-04-29T08:59:20.825Z,4.20
2023-04-29T09:02:15.450Z,4.77
2023-04-29T09:05:11.662Z,4.50
2023-04-29T09:08:03.655Z,4.70
2023-04-29T09:10:53.841Z,4.07
2023-04-29T09:13:43.653Z,4.57
2023-04-29T09:16:33.401Z,4.37
2023-04-29T09:19:34.024Z,3.97
2023-04-29T09:22:25.475Z,4.30
2023-04-29T09:25:15.547Z,5.23
2023-04-29T09:28:18.198Z,7.50
2023-04-29T09:31:09.137Z,3.67
2023-04-29T09:33:59.965Z,4.43
2023-04-29T09:36:51.135Z,4.30
2023-04-29T09:39:42.489Z,4.70
2023-04-29T09:42:32.687Z,4.53
2023-04-29T09:45:38.805Z,3.60
2023-04-29T09:48:34.773Z,4.27
2023-04-29T09:51:24.526Z,4.70
2023-04-29T09:54:23.593Z,5.23
2023-04-29T09:57:16.270Z,5.00
2023-04-29T10:00:06.104Z,5.10
2023-04-29T10:03:00.577Z,4.57
2023-04-29T10:05:50.473Z,4.33
2023-04-29T10:08:42.372Z,4.33
2023-04-29T10:11:32.363Z,5.10
2023-04-29T10:14:25.194Z,4.23
2023-04-29T10:17:26.940Z,5.43
2023-04-29T10:20:23.291Z,4.60
2023-04-29T10:23:15.274Z,4.80
2023-04-29T10:26:05.328Z,4.07
2023-04-29T10:28:57.660Z,4.27
2023-04-29T10:31:50.541Z,4.47
2023-04-29T10:34:40.923Z,4.00
2023-04-29T10:37:32.063Z,4.10
2023-04-29T10:40:26.828Z,4.20
2023-04-29T10:43:17.761Z,4.63
2023-04-29T10:46:27.266Z,4.20
2023-04-29T10:49:18.480Z,3.77
2023-04-29T10:52:08.227Z,4.57
2023-04-29T10:55:05.755Z,4.27
2023-04-29T10:57:56.977Z,4.47
2023-04-29T11:00:46.391Z,3.90
2023-04-29T11:03:59.143Z,4.23
2023-04-29T11:06:54.481Z,4.20
2023-04-29T11:09:44.125Z,4.13
2023-04-29T11:12:33.739Z,4.23
2023-04-29T11:15:23.358Z,4.57
2023-04-29T11:18:15.850Z,4.17
2023-04-29T11:21:15.586Z,4.13
2023-04-29T11:24:07.995Z,4.17
2023-04-29T11:27:04.794Z,4.63
2023-04-29T11:29:59.051Z,4.20
2023-04-29T11:32:50.858Z,4.70
2023-04-29T11:35:42.151Z,4.00
2023-04-29T11:38:33.008Z,4.50
2023-04-29T11:41:24.988Z,4.53
2023-04-29T11:44:15.178Z,4.30
2023-04-29T11:47:05.470Z,4.70
2023-04-29T11:49:55.249Z,4.60
2023-04-29T11:52:45.170Z,3.33
2023-04-29T11:55:34.891Z,4.03
2023-04-29T11:58:27.689Z,4.10
2023-04-29T12:01:17.396Z,4.60
2023-04-29T12:04:07.848Z,4.40
2023-04-29T12:07:00.393Z,4.50
2023-04-29T12:09:50.046Z,4.47
2023-04-29T12:12:41.216Z,4.47
2023-04-29T12:15:33.276Z,3.90
2023-04-29T12:18:28.880Z,4.97
2023-04-29T12:21:19.049Z,4.53
2023-04-29T12:24:08.833Z,4.73
2023-04-29T12:27:02.795Z,4.60
2023-04-29T12:29:54.466Z,4.60
2023-04-29T12:32:49.383Z,4.93
2023-04-29T12:35:39.863Z,4.73
2023-04-29T12:38:30.393Z,4.27
2023-04-29T12:41:22.106Z,4.33
2023-04-29T12:44:12.390Z,5.07
2023-04-29T12:47:11.162Z,4.40
2023-04-29T12:50:03.644Z,4.93
2023-04-29T12:52:53.273Z,4.50
2023-04-29T12:55:43.118Z,4.57
2023-04-29T12:58:33.285Z,4.33
2023-04-29T13:01:23.902Z,4.07
2023-04-29T13:04:13.692Z,4.40
2023-04-29T13:07:05.171Z,4.20
2023-04-29T13:09:55.652Z,4.47
2023-04-29T13:12:45.054Z,5.67
2023-04-29T13:15:35.045Z,4.83
2023-04-29T13:18:24.711Z,4.33
2023-04-29T13:21:14.230Z,4.83
2023-04-29T13:24:05.629Z,4.43
2023-04-29T13:26:55.056Z,5.07
2023-04-29T13:29:45.104Z,4.00
2023-04-29T13:32:43.961Z,4.53
2023-04-29T13:35:40.584Z,4.70
2023-04-29T13:38:30.630Z,4.60
2023-04-29T13:41:21.725Z,4.33
2023-04-29T13:44:23.594Z,3.80
2023-04-29T13:47:25.207Z,4.63
2023-04-29T13:50:40.169Z,4.30
2023-04-29T13:54:00.858Z,4.40
2023-04-29T13:59:51.720Z,5.20
2023-04-29T14:02:42.712Z,4.97
2023-04-29T14:05:32.403Z,4.17
2023-04-29T14:08:22.226Z,6.40
2023-04-29T14:11:11.970Z,4.50
2023-04-29T14:14:03.054Z,4.30
2023-04-29T14:16:52.690Z,4.50
2023-04-29T14:19:42.284Z,4.03
2023-04-29T14:22:32.024Z,4.70
2023-04-29T14:25:21.386Z,4.43
2023-04-29T14:28:11.891Z,4.60
2023-04-29T14:31:03.085Z,4.30
2023-04-29T14:33:53.974Z,4.60
2023-04-29T14:36:45.428Z,4.27
2023-04-29T14:39:37.252Z,4.63
2023-04-29T14:42:27.010Z,4.00
2023-04-29T14:45:17.596Z,4.60
2023-04-29T14:48:08.682Z,4.40
2023-04-29T14:50:58.314Z,4.27
2023-04-29T14:53:47.870Z,4.93
2023-04-29T14:56:38.556Z,4.73
2023-04-29T14:59:30.423Z,4.60
2023-04-29T15:02:20.554Z,3.83
2023-04-29T15:05:11.934Z,3.57
2023-04-29T15:08:02.705Z,3.90
2023-04-29T15:10:52.426Z,4.47
2023-04-29T15:13:44.534Z,4.10
2023-04-29T15:16:34.169Z,3.40
2023-04-29T15:19:30.632Z,4.13
2023-04-29T15:22:21.773Z,4.70
2023-04-29T15:25:11.872Z,4.13
2023-04-29T15:28:01.853Z,3.90
2023-04-29T15:30:51.214Z,3.93
2023-04-29T15:33:41.235Z,3.83
2023-04-29T15:36:32.520Z,3.47
2023-04-29T15:39:24.057Z,3.57
2023-04-29T15:42:13.721Z,3.77
2023-04-29T15:45:03.971Z,4.00
2023-04-29T15:47:53.586Z,4.03
2023-04-29T15:50:43.274Z,4.10
2023-04-29T15:53:32.956Z,3.43
2023-04-29T15:56:24.227Z,3.70
2023-04-29T15:59:14.446Z,4.00
2023-04-29T16:02:10.701Z,4.00
2023-04-29T16:05:00.755Z,4.60
2023-04-29T16:07:50.417Z,5.70
2023-04-29T16:10:40.036Z,4.00
2023-04-29T16:13:31.248Z,4.00
2023-04-29T16:16:20.810Z,4.20
2023-04-29T16:19:10.590Z,4.07
2023-04-29T16:22:00.513Z,6.30
2023-04-29T16:24:50.615Z,15.70
2023-04-29T16:27:40.333Z,4.10
2023-04-29T16:30:31.107Z,18.70
2023-04-29T16:33:20.871Z,3.27
2023-04-29T16:36:10.469Z,4.20
2023-04-29T16:39:00.510Z,5.50
2023-04-29T16:41:50.436Z,6.40
2023-04-29T16:44:39.945Z,10.93
2023-04-29T16:47:31.254Z,13.13
2023-04-29T16:50:21.352Z,11.33
2023-04-29T16:53:10.780Z,5.13
2023-04-29T16:56:00.450Z,3.80
2023-04-29T16:58:50.588Z,7.50
2023-04-29T17:01:40.623Z,3.30
2023-04-29T17:04:32.564Z,4.40
2023-04-29T17:07:22.411Z,5.37
2023-04-29T17:10:12.675Z,4.47
2023-04-29T17:13:02.477Z,4.77
2023-04-29T17:15:52.177Z,4.10
2023-04-29T17:18:42.353Z,21.53
2023-04-29T17:21:33.936Z,5.33
2023-04-29T17:24:25.130Z,3.70
2023-04-29T17:27:31.445Z,3.70
2023-04-29T17:30:21.380Z,4.00
2023-04-29T17:33:13.485Z,4.47
2023-04-29T17:36:04.264Z,8.27
2023-04-29T17:38:57.389Z,5.60
2023-04-29T17:41:47.967Z,4.37
2023-04-29T17:44:38.486Z,3.83
2023-04-29T17:47:28.567Z,3.83
2023-04-29T17:50:19.075Z,3.73
2023-04-29T17:53:09.552Z,4.17
2023-04-29T17:56:01.136Z,3.53
2023-04-29T17:58:51.149Z,3.43
2023-04-29T18:01:40.724Z,4.30
2023-04-29T18:04:31.025Z,4.53
2023-04-29T18:07:20.866Z,7.20
2023-04-29T18:10:12.150Z,5.70
2023-04-29T18:13:03.736Z,5.97
2023-04-29T18:15:53.609Z,4.57
2023-04-29T18:18:43.609Z,4.37
2023-04-29T18:21:34.227Z,4.47
2023-04-29T18:24:24.016Z,4.10
2023-04-29T18:27:13.855Z,3.83
2023-04-29T18:30:05.991Z,3.43
2023-04-29T18:32:55.534Z,3.80
2023-04-29T18:35:46.487Z,3.37
2023-04-29T18:38:36.290Z,5.90
2023-04-29T18:41:25.864Z,8.07
2023-04-29T18:44:16.504Z,10.30
2023-04-29T18:47:07.952Z,11.10
2023-04-29T18:49:58.801Z,9.30
2023-04-29T18:52:48.467Z,7.90
2023-04-29T18:55:38.614Z,6.17
2023-04-29T18:58:28.973Z,4.77
2023-04-29T19:01:19.156Z,6.30
2023-04-29T19:04:10.986Z,5.13
2023-04-29T19:07:02.986Z,5.37
2023-04-29T19:09:53.028Z,6.67
2023-04-29T19:12:43.380Z,4.13
2023-04-29T19:15:34.178Z,4.50
2023-04-29T19:18:25.091Z,5.30
2023-04-29T19:21:21.289Z,3.97
2023-04-29T19:24:11.121Z,5.97
2023-04-29T19:27:04.364Z,14.90
2023-04-29T19:29:55.072Z,10.90
2023-04-29T19:32:47.626Z,4.90
2023-04-29T19:35:37.928Z,4.20
2023-04-29T19:38:29.861Z,4.07
2023-04-29T19:41:22.647Z,4.33
2023-04-29T19:44:12.855Z,16.03
2023-04-29T19:47:02.895Z,4.43
2023-04-29T19:49:53.320Z,5.10
2023-04-29T19:52:43.036Z,4.17
2023-04-29T19:55:34.938Z,4.23
2023-04-29T19:58:24.948Z,8.97
2023-04-29T20:01:14.867Z,7.47
2023-04-29T20:04:04.794Z,7.17
2023-04-29T20:06:54.935Z,6.37
2023-04-29T20:09:46.418Z,22.83
2023-04-29T20:12:37.492Z,21.80
2023-04-29T20:15:27.548Z,15.10
2023-04-29T20:18:18.393Z,17.07
2023-04-29T20:21:08.589Z,21.77
2023-04-29T20:24:00.142Z,26.83
2023-04-29T20:26:49.848Z,32.97
2023-04-29T20:29:44.664Z,5.90
2023-04-29T20:32:36.245Z,4.27
2023-04-29T20:35:26.187Z,6.67
2023-04-29T20:38:15.871Z,4.73
2023-04-29T20:41:06.751Z,6.30
2023-04-29T20:43:56.328Z,24.93
2023-04-29T20:46:47.390Z,8.60
2023-04-29T20:49:37.227Z,34.90
2023-04-29T20:52:27.980Z,14.40
2023-04-29T20:55:18.086Z,6.53
2023-04-29T20:58:07.728Z,7.17
2023-04-29T21:00:57.200Z,6.83
2023-04-29T21:03:48.130Z,41.57
2023-04-29T21:06:38.277Z,22.47
2023-04-29T21:09:28.136Z,71.30
2023-04-29T21:12:17.671Z,97.83
2023-04-29T21:15:08.384Z,15.77
2023-04-29T21:17:58.156Z,21.03
2023-04-29T21:20:49.313Z,42.37
2023-04-29T21:23:38.915Z,8.63
2023-04-29T21:26:28.407Z,48.83
2023-04-29T21:29:17.932Z,42.90
2023-04-29T21:32:07.952Z,24.30
2023-04-29T21:34:58.014Z,35.57
2023-04-29T21:37:49.485Z,82.03
2023-04-29T21:40:42.998Z,5.57
2023-04-29T21:43:33.227Z,128.23
2023-04-29T21:46:23.183Z,28.37
2023-04-29T21:49:13.065Z,5.10
2023-04-29T21:52:03.630Z,29.23
2023-04-29T21:54:55.208Z,40.43
2023-04-29T21:57:45.744Z,155.07
2023-04-29T22:00:36.882Z,54.60
2023-04-29T22:03:26.594Z,68.73
2023-04-29T22:06:16.155Z,16.23
2023-04-29T22:09:06.896Z,42.43
2023-04-29T22:11:57.904Z,171.90
2023-04-29T22:14:47.968Z,27.47
2023-04-29T22:17:37.575Z,6.73
2023-04-29T22:20:27.863Z,12.30
2023-04-29T22:23:17.584Z,61.93
2023-04-29T22:26:07.263Z,197.60
2023-04-29T22:28:58.315Z,185.17
2023-04-29T22:31:47.955Z,186.80
2023-04-29T22:34:37.680Z,131.63
2023-04-29T22:37:27.628Z,20.63
2023-04-29T22:40:17.121Z,7.50
2023-04-29T22:43:06.612Z,119.57
2023-04-29T22:45:58.659Z,16.30
2023-04-29T22:49:44.613Z,18.03
2023-04-29T22:52:34.515Z,5.80
2023-04-29T22:55:24.132Z,5.10
2023-04-29T22:58:16.329Z,10.07
2023-04-29T23:01:09.336Z,6.43
2023-04-29T23:04:00.553Z,5.83
2023-04-29T23:06:50.035Z,5.73
2023-04-29T23:09:39.805Z,19.73
2023-04-29T23:12:30.765Z,7.80
2023-04-29T23:15:20.357Z,17.57
2023-04-29T23:18:11.585Z,3.87
2023-04-29T23:21:01.143Z,22.63
2023-04-29T23:23:50.666Z,15.50
2023-04-29T23:26:40.187Z,10.07
2023-04-29T23:29:30.045Z,14.07
2023-04-29T23:32:19.857Z,16.37
2023-04-29T23:35:13.586Z,4.13
2023-04-29T23:38:03.145Z,4.27
2023-04-29T23:40:52.745Z,4.30
2023-04-29T23:43:42.361Z,3.97
2023-04-29T23:46:32.149Z,5.13
2023-04-29T23:49:21.726Z,4.30
2023-04-29T23:52:12.817Z,4.63
2023-04-29T23:55:03.293Z,4.17
2023-04-29T23:57:53.099Z,4.60
